createdAt,value
2019-01-30T00:00:26.688Z,25.77
2019-01-30T00:03:01.190Z,23.47
2019-01-30T00:05:31.209Z,22.13
2019-01-30T00:08:02.690Z,25.63
2019-01-30T00:10:34.380Z,28.03
2019-01-30T00:13:07.085Z,28.27
2019-01-30T00:15:37.745Z,24.17
2019-01-30T00:18:08.890Z,21.80
2019-01-30T00:20:40.045Z,24.87
2019-01-30T00:23:11.031Z,22.17
2019-01-30T00:25:42.287Z,21.50
2019-01-30T00:28:13.073Z,22.03
2019-01-30T00:30:46.804Z,21.87
2019-01-30T00:33:18.105Z,29.43
2019-01-30T00:35:48.931Z,21.83
2019-01-30T00:38:20.112Z,22.63
2019-01-30T00:40:50.795Z,22.97
2019-01-30T00:43:22.195Z,25.23
2019-01-30T00:45:53.203Z,25.47
2019-01-30T00:48:24.751Z,20.37
2019-01-30T00:50:56.538Z,21.53
2019-01-30T00:53:27.444Z,17.73
2019-01-30T00:55:59.213Z,18.77
2019-01-30T00:58:30.145Z,21.57
2019-01-30T01:01:00.776Z,17.57
2019-01-30T01:03:33.448Z,18.50
2019-01-30T01:06:09.302Z,18.93
2019-01-30T01:08:42.137Z,21.70
2019-01-30T01:11:13.324Z,19.57
2019-01-30T01:13:52.493Z,19.90
2019-01-30T01:16:31.146Z,17.83
2019-01-30T01:19:00.058Z,16.27
2019-01-30T01:21:31.298Z,19.87
2019-01-30T01:24:02.787Z,17.50
2019-01-30T01:26:34.417Z,16.23
2019-01-30T01:29:08.091Z,19.10
2019-01-30T01:31:39.564Z,17.30
2019-01-30T01:34:20.872Z,20.70
2019-01-30T01:36:52.130Z,18.13
2019-01-30T01:39:24.391Z,18.30
2019-01-30T01:41:55.564Z,16.13
2019-01-30T01:44:28.410Z,15.87
2019-01-30T01:47:02.065Z,16.97
2019-01-30T01:49:33.308Z,17.33
2019-01-30T01:52:04.580Z,15.93
2019-01-30T01:54:39.817Z,17.37
2019-01-30T01:57:10.980Z,15.07
2019-01-30T01:59:44.985Z,13.93
2019-01-30T02:02:15.981Z,16.67
2019-01-30T02:04:52.582Z,14.63
2019-01-30T02:07:39.384Z,18.10
2019-01-30T02:10:12.644Z,14.57
2019-01-30T02:12:44.310Z,15.17
2019-01-30T02:15:20.574Z,17.87
2019-01-30T02:18:13.572Z,19.83
2019-01-30T02:20:46.389Z,17.50
2019-01-30T02:23:25.135Z,16.77
2019-01-30T02:26:02.881Z,16.30
2019-01-30T02:28:36.923Z,14.87
2019-01-30T02:31:08.446Z,14.63
2019-01-30T02:33:40.133Z,13.00
2019-01-30T02:36:13.705Z,12.88
2019-01-30T02:38:45.143Z,14.60
2019-01-30T02:41:19.721Z,12.17
2019-01-30T02:43:57.437Z,12.80
2019-01-30T02:46:29.098Z,11.93
2019-01-30T02:49:06.473Z,12.50
2019-01-30T02:51:38.770Z,12.63
2019-01-30T02:54:13.313Z,12.40
2019-01-30T02:56:43.332Z,12.97
2019-01-30T02:59:14.280Z,11.90
2019-01-30T03:02:07.226Z,12.33
2019-01-30T03:04:38.910Z,14.87
2019-01-30T03:07:11.296Z,11.93
2019-01-30T03:09:46.700Z,12.43
2019-01-30T03:12:20.404Z,10.73
2019-01-30T03:14:51.411Z,11.80
2019-01-30T03:17:22.867Z,14.57
2019-01-30T03:19:54.029Z,13.30
2019-01-30T03:22:24.977Z,11.13
2019-01-30T03:24:55.992Z,15.37
2019-01-30T03:27:28.757Z,10.00
2019-01-30T03:29:59.926Z,11.97
2019-01-30T03:32:31.377Z,12.57
2019-01-30T03:35:02.647Z,14.27
2019-01-30T03:37:37.928Z,11.53
2019-01-30T03:40:15.884Z,11.07
2019-01-30T03:42:47.863Z,11.60
2019-01-30T03:45:22.917Z,9.03
2019-01-30T03:47:57.439Z,11.53
2019-01-30T03:50:28.438Z,10.20
2019-01-30T03:52:59.816Z,10.57
2019-01-30T03:55:30.970Z,10.37
2019-01-30T03:58:02.307Z,12.00
2019-01-30T04:00:38.890Z,10.53
2019-01-30T04:03:13.025Z,8.77
2019-01-30T04:05:44.141Z,8.80
2019-01-30T04:08:15.288Z,11.23
2019-01-30T04:10:46.588Z,8.63
2019-01-30T04:13:19.086Z,9.90
2019-01-30T04:15:50.258Z,11.27
2019-01-30T04:18:21.479Z,9.17
2019-01-30T04:21:05.356Z,11.33
2019-01-30T04:23:40.242Z,12.07
2019-01-30T04:26:10.990Z,9.63
2019-01-30T04:28:41.895Z,8.77
2019-01-30T04:31:16.042Z,9.28
2019-01-30T04:33:51.524Z,8.93
2019-01-30T04:36:37.435Z,8.93
2019-01-30T04:39:16.651Z,7.72
2019-01-30T04:41:50.780Z,9.07
2019-01-30T04:44:24.906Z,9.23
2019-01-30T04:46:59.690Z,8.40
2019-01-30T04:49:39.118Z,10.50
2019-01-30T04:52:10.102Z,10.40
2019-01-30T04:55:11.718Z,10.13
2019-01-30T04:57:44.019Z,10.23
2019-01-30T05:00:22.368Z,7.83
2019-01-30T05:02:58.950Z,8.67
2019-01-30T05:05:38.718Z,8.67
2019-01-30T05:08:14.128Z,10.17
2019-01-30T05:10:54.979Z,10.93
2019-01-30T05:13:30.503Z,8.85
2019-01-30T05:16:06.130Z,9.30
2019-01-30T05:18:46.958Z,9.20
2019-01-30T05:21:21.308Z,8.67
2019-01-30T05:23:55.200Z,9.07
2019-01-30T05:26:29.385Z,8.30
2019-01-30T05:29:03.780Z,10.17
2019-01-30T05:31:37.778Z,8.88
2019-01-30T05:34:24.362Z,8.33
2019-01-30T05:37:01.973Z,9.10
2019-01-30T05:39:52.340Z,8.03
2019-01-30T05:42:26.800Z,8.77
2019-01-30T05:44:59.605Z,7.37
2019-01-30T05:47:36.634Z,9.00
2019-01-30T05:50:25.868Z,6.85
2019-01-30T05:53:01.482Z,8.80
2019-01-30T05:55:37.056Z,12.00
2019-01-30T05:58:11.210Z,9.43
2019-01-30T06:00:43.182Z,8.77
2019-01-30T06:03:36.665Z,8.53
2019-01-30T06:06:11.907Z,7.17
2019-01-30T06:08:45.496Z,8.40
2019-01-30T06:11:34.062Z,7.43
2019-01-30T06:14:07.833Z,6.90
2019-01-30T06:16:42.339Z,8.63
2019-01-30T06:19:15.905Z,9.93
2019-01-30T06:21:50.470Z,7.77
2019-01-30T06:24:28.060Z,10.20
2019-01-30T06:27:04.832Z,6.63
2019-01-30T06:29:38.296Z,8.87
2019-01-30T06:32:29.731Z,7.30
2019-01-30T06:35:03.363Z,9.40
2019-01-30T06:37:48.472Z,7.97
2019-01-30T06:40:34.754Z,12.00
2019-01-30T06:43:17.310Z,9.90
2019-01-30T06:45:52.191Z,8.63
2019-01-30T06:48:26.730Z,9.17
2019-01-30T06:51:01.384Z,9.60
2019-01-30T06:53:35.730Z,7.77
2019-01-30T06:56:12.169Z,9.80
2019-01-30T06:58:58.861Z,7.27
2019-01-30T07:01:44.957Z,10.87
2019-01-30T07:04:22.991Z,12.57
2019-01-30T07:06:55.467Z,8.57
2019-01-30T07:09:27.253Z,9.20
2019-01-30T07:12:03.129Z,10.30
2019-01-30T07:14:34.535Z,11.33
2019-01-30T07:17:06.089Z,12.93
2019-01-30T07:19:39.150Z,9.43
2019-01-30T07:22:10.291Z,12.23
2019-01-30T07:24:49.836Z,8.07
2019-01-30T07:27:21.814Z,8.43
2019-01-30T07:29:59.976Z,15.17
2019-01-30T07:32:42.091Z,8.83
2019-01-30T07:35:16.645Z,10.20
2019-01-30T07:37:45.808Z,13.27
2019-01-30T07:40:20.009Z,12.27
2019-01-30T07:43:00.674Z,14.10
2019-01-30T07:45:49.432Z,13.47
2019-01-30T07:48:29.187Z,11.97
2019-01-30T07:51:17.406Z,14.23
2019-01-30T07:54:20.567Z,15.23
2019-01-30T07:57:10.265Z,21.23
2019-01-30T07:59:55.304Z,17.53
2019-01-30T08:02:36.274Z,20.73
2019-01-30T08:05:16.199Z,21.47
2019-01-30T08:08:00.107Z,20.47
2019-01-30T08:10:35.395Z,17.83
2019-01-30T08:13:18.704Z,20.23
2019-01-30T08:15:59.055Z,20.43
2019-01-30T08:18:34.517Z,26.53
2019-01-30T08:21:10.862Z,19.07
2019-01-30T08:23:47.705Z,21.17
2019-01-30T08:26:21.137Z,36.53
2019-01-30T08:29:02.858Z,31.33
2019-01-30T08:31:35.765Z,32.73
2019-01-30T08:34:15.355Z,47.30
2019-01-30T08:37:02.138Z,37.73
2019-01-30T08:39:46.854Z,39.93
2019-01-30T08:42:22.550Z,57.80
2019-01-30T08:44:57.703Z,55.93
2019-01-30T08:47:33.612Z,59.70
2019-01-30T08:52:58.905Z,54.23
2019-01-30T08:55:35.738Z,52.48
2019-01-30T08:58:08.903Z,61.03
2019-01-30T09:00:53.461Z,56.23
2019-01-30T09:03:29.536Z,58.33
2019-01-30T09:06:08.538Z,79.93
2019-01-30T09:08:51.824Z,59.67
2019-01-30T09:11:19.427Z,63.13
2019-01-30T09:13:56.360Z,59.10
2019-01-30T09:16:28.296Z,61.37
2019-01-30T09:19:05.548Z,52.83
2019-01-30T09:21:37.997Z,43.43
2019-01-30T09:24:25.295Z,56.47
2019-01-30T09:27:10.844Z,50.43
2019-01-30T09:29:39.104Z,55.33
2019-01-30T09:32:13.456Z,52.93
2019-01-30T09:34:49.296Z,49.80
2019-01-30T09:37:23.960Z,43.83
2019-01-30T09:39:58.147Z,48.13
2019-01-30T09:42:31.112Z,56.37
2019-01-30T09:45:14.695Z,50.93
2019-01-30T09:47:53.590Z,42.47
2019-01-30T09:50:30.707Z,45.37
2019-01-30T09:53:27.116Z,50.73
2019-01-30T09:56:19.289Z,41.00
2019-01-30T09:59:06.472Z,52.07
2019-01-30T10:01:42.232Z,51.43
2019-01-30T10:04:27.319Z,51.03
2019-01-30T10:07:02.923Z,48.50
2019-01-30T10:09:40.305Z,39.10
2019-01-30T10:12:32.740Z,46.07
2019-01-30T10:15:16.654Z,33.97
2019-01-30T10:17:48.320Z,36.20
2019-01-30T10:20:30.057Z,49.33
2019-01-30T10:26:00.312Z,49.50
2019-01-30T10:28:33.146Z,41.67
2019-01-30T10:31:23.866Z,43.60
2019-01-30T10:34:04.864Z,34.57
2019-01-30T10:36:50.485Z,43.13
2019-01-30T10:39:29.382Z,38.83
2019-01-30T10:42:15.213Z,47.20
2019-01-30T10:44:53.471Z,36.60
2019-01-30T10:47:19.094Z,27.07
2019-01-30T10:50:04.076Z,27.47
2019-01-30T10:52:46.899Z,37.43
2019-01-30T10:55:23.295Z,24.70
2019-01-30T10:58:05.481Z,24.70
2019-01-30T11:00:51.675Z,22.00
2019-01-30T11:03:38.519Z,26.47
2019-01-30T11:06:23.814Z,18.17
2019-01-30T11:09:02.199Z,17.57
2019-01-30T11:11:42.965Z,21.13
2019-01-30T11:14:31.146Z,18.17
2019-01-30T11:17:08.796Z,17.90
2019-01-30T11:19:54.122Z,16.80
2019-01-30T11:22:30.542Z,21.93
2019-01-30T11:25:19.930Z,17.27
2019-01-30T11:27:57.925Z,15.03
2019-01-30T11:30:40.066Z,14.53
2019-01-30T11:33:28.392Z,14.27
2019-01-30T11:36:13.470Z,14.27
2019-01-30T11:38:52.496Z,15.60
2019-01-30T11:41:30.292Z,15.10
2019-01-30T11:44:29.603Z,15.03
2019-01-30T11:47:16.310Z,12.80
2019-01-30T11:49:51.042Z,17.73
2019-01-30T11:52:36.001Z,14.83
2019-01-30T11:55:22.796Z,17.43
2019-01-30T11:58:03.214Z,16.03
2019-01-30T12:00:40.840Z,15.07
2019-01-30T12:03:21.491Z,17.60
2019-01-30T12:06:05.814Z,20.67
2019-01-30T12:08:42.292Z,17.53
2019-01-30T12:11:25.811Z,13.93
2019-01-30T12:14:07.738Z,16.03
2019-01-30T12:16:53.776Z,14.33
2019-01-30T12:19:29.547Z,15.70
2019-01-30T12:22:11.947Z,15.20
2019-01-30T12:25:03.434Z,15.60
2019-01-30T12:27:47.427Z,16.53
2019-01-30T12:30:34.670Z,14.63
2019-01-30T12:33:22.217Z,13.00
2019-01-30T12:36:11.698Z,16.17
2019-01-30T12:39:12.123Z,20.60
2019-01-30T12:41:57.717Z,24.70
2019-01-30T12:44:49.650Z,18.40
2019-01-30T12:47:25.352Z,19.73
2019-01-30T12:50:19.066Z,19.47
2019-01-30T12:53:11.123Z,22.23
2019-01-30T12:56:01.665Z,14.83
2019-01-30T12:58:34.134Z,12.10
2019-01-30T13:01:17.153Z,13.53
2019-01-30T13:03:46.894Z,17.50
2019-01-30T13:06:26.145Z,14.40
2019-01-30T13:09:13.197Z,12.03
2019-01-30T13:12:08.494Z,15.77
2019-01-30T13:14:45.839Z,12.17
2019-01-30T13:17:36.808Z,14.63
2019-01-30T13:20:35.002Z,16.67
2019-01-30T13:23:14.416Z,13.53
2019-01-30T13:25:48.115Z,15.47
2019-01-30T13:28:24.606Z,12.35
2019-01-30T13:31:17.958Z,11.93
2019-01-30T13:33:54.795Z,18.37
2019-01-30T13:36:43.786Z,14.28
2019-01-30T13:39:21.854Z,17.40
2019-01-30T13:41:58.312Z,14.53
2019-01-30T13:44:32.492Z,23.13
2019-01-30T13:47:06.997Z,15.73
2019-01-30T13:49:42.771Z,17.00
2019-01-30T13:52:25.937Z,18.55
2019-01-30T13:55:03.608Z,20.60
2019-01-30T14:00:27.544Z,12.67
2019-01-30T14:02:58.065Z,14.03
2019-01-30T14:05:28.917Z,12.97
2019-01-30T14:08:00.057Z,15.17
2019-01-30T14:10:31.942Z,12.17
2019-01-30T14:13:07.051Z,16.27
2019-01-30T14:15:41.038Z,11.17
2019-01-30T14:18:15.677Z,10.47
2019-01-30T14:20:59.197Z,12.00
2019-01-30T14:23:27.955Z,16.87
2019-01-30T14:26:09.972Z,12.17
2019-01-30T14:28:50.583Z,13.67
2019-01-30T14:31:26.092Z,16.20
2019-01-30T14:33:59.443Z,13.13
2019-01-30T14:36:36.322Z,9.88
2019-01-30T14:39:37.652Z,14.40
2019-01-30T14:42:12.152Z,12.27
2019-01-30T14:44:59.822Z,15.03
2019-01-30T14:47:35.787Z,19.65
2019-01-30T14:50:31.275Z,10.27
2019-01-30T14:53:08.818Z,9.83
2019-01-30T14:55:43.358Z,11.97
2019-01-30T14:58:18.981Z,16.63
2019-01-30T15:00:50.325Z,11.87
2019-01-30T15:03:25.805Z,17.17
2019-01-30T15:06:10.147Z,15.53
2019-01-30T15:08:58.898Z,16.13
2019-01-30T15:11:59.121Z,13.80
2019-01-30T15:14:35.664Z,13.57
2019-01-30T15:17:15.750Z,14.83
2019-01-30T15:19:49.153Z,19.33
2019-01-30T15:22:24.290Z,15.88
2019-01-30T15:24:58.139Z,10.93
2019-01-30T15:27:32.665Z,18.07
2019-01-30T15:30:09.872Z,19.33
2019-01-30T15:32:45.654Z,13.27
2019-01-30T15:35:33.329Z,20.57
2019-01-30T15:37:59.330Z,16.67
2019-01-30T15:40:33.607Z,17.10
2019-01-30T15:43:10.691Z,14.70
2019-01-30T15:45:45.180Z,15.40
2019-01-30T15:48:29.140Z,17.30
2019-01-30T15:50:58.603Z,15.93
2019-01-30T15:53:29.877Z,16.42
2019-01-30T15:56:04.390Z,13.93
2019-01-30T15:58:38.721Z,15.13
2019-01-30T16:01:23.382Z,13.90
2019-01-30T16:03:57.893Z,15.80
2019-01-30T16:06:30.927Z,19.23
2019-01-30T16:09:40.686Z,15.43
2019-01-30T16:12:20.348Z,11.30
2019-01-30T16:14:59.346Z,11.23
2019-01-30T16:17:41.277Z,11.70
2019-01-30T16:20:10.732Z,11.10
2019-01-30T16:22:55.193Z,10.47
2019-01-30T16:25:34.782Z,13.37
2019-01-30T16:28:24.335Z,11.33
2019-01-30T16:30:59.722Z,10.13
2019-01-30T16:33:44.624Z,13.43
2019-01-30T16:36:19.912Z,11.33
2019-01-30T16:38:55.893Z,11.33
2019-01-30T16:41:39.284Z,10.83
2019-01-30T16:44:15.557Z,13.73
2019-01-30T16:46:54.117Z,14.73
2019-01-30T16:49:27.376Z,13.13
2019-01-30T16:52:08.538Z,13.03
2019-01-30T16:54:41.124Z,14.20
2019-01-30T16:57:15.835Z,15.47
2019-01-30T16:59:53.293Z,12.33
2019-01-30T17:02:29.553Z,11.78
2019-01-30T17:05:11.573Z,17.13
2019-01-30T17:07:49.219Z,15.07
2019-01-30T17:10:25.004Z,13.43
2019-01-30T17:13:04.442Z,15.23
2019-01-30T17:15:56.936Z,17.77
2019-01-30T17:18:28.182Z,16.00
2019-01-30T17:21:01.634Z,12.30
2019-01-30T17:23:41.835Z,14.23
2019-01-30T17:26:15.111Z,14.83
2019-01-30T17:28:48.070Z,15.37
2019-01-30T17:31:34.541Z,17.03
2019-01-30T17:34:13.195Z,14.73
2019-01-30T17:36:47.511Z,15.20
2019-01-30T17:39:23.937Z,13.97
2019-01-30T17:41:58.315Z,17.30
2019-01-30T17:44:33.196Z,18.90
2019-01-30T17:47:11.079Z,13.77
2019-01-30T17:49:43.852Z,13.13
2019-01-30T17:52:16.027Z,19.25
2019-01-30T17:54:54.500Z,21.93
2019-01-30T17:57:26.614Z,19.20
2019-01-30T18:00:03.853Z,16.60
2019-01-30T18:02:41.926Z,17.90
2019-01-30T18:05:20.279Z,17.07
2019-01-30T18:07:58.783Z,21.20
2019-01-30T18:10:44.958Z,15.00
2019-01-30T18:13:45.146Z,21.43
2019-01-30T18:15:57.681Z,19.17
2019-01-30T18:18:32.354Z,16.77
2019-01-30T18:21:05.445Z,19.37
2019-01-30T18:23:38.933Z,23.37
2019-01-30T18:26:13.601Z,19.60
2019-01-30T18:28:58.469Z,18.10
2019-01-30T18:31:34.237Z,20.27
2019-01-30T18:34:22.463Z,20.17
2019-01-30T18:36:57.644Z,22.90
2019-01-30T18:39:30.946Z,20.23
2019-01-30T18:42:08.221Z,19.60
2019-01-30T18:44:41.686Z,21.97
2019-01-30T18:47:17.148Z,19.40
2019-01-30T18:49:51.139Z,17.53
2019-01-30T18:52:40.584Z,18.05
2019-01-30T18:55:16.786Z,14.80
2019-01-30T18:57:51.744Z,18.67
2019-01-30T19:00:26.748Z,14.97
2019-01-30T19:03:07.876Z,24.53
2019-01-30T19:05:57.428Z,17.50
2019-01-30T19:08:41.618Z,18.27
2019-01-30T19:11:16.466Z,18.37
2019-01-30T19:13:51.715Z,21.47
2019-01-30T19:16:28.248Z,24.50
2019-01-30T19:19:15.959Z,19.73
2019-01-30T19:21:51.034Z,22.57
2019-01-30T19:24:34.365Z,16.62
2019-01-30T19:27:12.608Z,14.50
2019-01-30T19:29:47.342Z,18.13
2019-01-30T19:32:21.834Z,19.40
2019-01-30T19:35:05.210Z,18.33
2019-01-30T19:38:09.185Z,21.87
2019-01-30T19:40:53.043Z,15.40
2019-01-30T19:43:32.148Z,16.23
2019-01-30T19:46:07.320Z,14.90
2019-01-30T19:48:40.095Z,14.07
2019-01-30T19:51:14.365Z,19.90
2019-01-30T19:53:50.114Z,18.13
2019-01-30T19:56:34.577Z,21.10
2019-01-30T19:59:05.298Z,16.53
2019-01-30T20:01:36.333Z,17.10
2019-01-30T20:04:09.820Z,19.23
2019-01-30T20:06:53.506Z,25.73
2019-01-30T20:09:48.605Z,19.87
2019-01-30T20:12:24.797Z,17.17
2019-01-30T20:14:59.818Z,19.30
2019-01-30T20:17:33.477Z,20.93
2019-01-30T20:20:17.313Z,17.07
2019-01-30T20:22:53.669Z,20.33
2019-01-30T20:25:30.435Z,19.73
2019-01-30T20:28:06.702Z,15.27
2019-01-30T20:30:43.249Z,19.23
2019-01-30T20:33:14.603Z,15.77
2019-01-30T20:35:58.648Z,15.47
2019-01-30T20:38:34.290Z,15.83
2019-01-30T20:41:15.821Z,14.83
2019-01-30T20:44:00.192Z,13.57
2019-01-30T20:46:34.917Z,9.97
2019-01-30T20:49:21.879Z,14.67
2019-01-30T20:54:59.705Z,14.30
2019-01-30T20:57:27.542Z,14.17
2019-01-30T20:59:59.138Z,12.60
2019-01-30T21:02:32.589Z,10.10
2019-01-30T21:05:07.899Z,10.03
2019-01-30T21:07:38.474Z,9.43
2019-01-30T21:10:36.617Z,12.40
2019-01-30T21:13:20.667Z,11.70
2019-01-30T21:15:52.058Z,13.03
2019-01-30T21:18:22.962Z,12.33
2019-01-30T21:20:55.685Z,11.63
2019-01-30T21:23:31.051Z,12.27
2019-01-30T21:26:07.419Z,13.10
2019-01-30T21:28:46.142Z,13.37
2019-01-30T21:31:19.686Z,12.53
2019-01-30T21:33:53.902Z,11.67
2019-01-30T21:36:24.800Z,9.70
2019-01-30T21:39:05.739Z,10.63
2019-01-30T21:41:37.136Z,13.37
2019-01-30T21:44:11.093Z,12.27
2019-01-30T21:46:42.523Z,11.07
2019-01-30T21:49:16.090Z,10.67
2019-01-30T21:51:47.290Z,10.37
2019-01-30T21:54:18.326Z,14.10
2019-01-30T21:56:49.049Z,10.07
2019-01-30T21:59:20.086Z,9.60
2019-01-30T22:01:51.809Z,10.07
2019-01-30T22:04:26.736Z,13.20
2019-01-30T22:06:57.480Z,11.97
2019-01-30T22:09:28.375Z,9.37
2019-01-30T22:12:01.619Z,11.13
2019-01-30T22:14:35.319Z,12.27
2019-01-30T22:17:06.041Z,10.57
2019-01-30T22:19:36.989Z,10.87
2019-01-30T22:22:10.748Z,15.00
2019-01-30T22:24:43.978Z,10.67
2019-01-30T22:27:17.225Z,10.67
2019-01-30T22:29:48.067Z,11.83
2019-01-30T22:32:20.247Z,13.03
2019-01-30T22:34:54.473Z,9.37
2019-01-30T22:37:28.324Z,11.57
2019-01-30T22:40:00.652Z,15.20
2019-01-30T22:42:31.561Z,16.33
2019-01-30T22:45:05.270Z,10.87
2019-01-30T22:47:39.654Z,11.37
2019-01-30T22:50:13.754Z,9.57
2019-01-30T22:52:44.778Z,10.47
2019-01-30T22:55:19.034Z,10.07
2019-01-30T22:57:51.122Z,9.40
2019-01-30T23:04:07.179Z,9.07
2019-01-30T23:07:26.827Z,11.80
2019-01-30T23:10:24.028Z,10.33
2019-01-30T23:13:50.737Z,7.60
2019-01-30T23:16:52.321Z,10.43
2019-01-30T23:19:45.758Z,9.20
2019-01-30T23:23:09.049Z,10.80
2019-01-30T23:26:09.649Z,12.70
2019-01-30T23:29:33.791Z,7.63
2019-01-30T23:32:40.984Z,7.87
2019-01-30T23:35:51.329Z,9.70
2019-01-30T23:39:07.091Z,7.73
2019-01-30T23:41:50.566Z,9.00
2019-01-30T23:44:49.873Z,7.40
2019-01-30T23:47:51.332Z,7.15
2019-01-30T23:50:56.007Z,8.23
2019-01-30T23:54:32.046Z,6.70
2019-01-30T23:57:22.704Z,8.40
